sensor_id;sensor_type;location;lat;lon;timestamp;temperature;humidity
10089;DHT22;51898;49.864;8.550;2023-04-25T00:00:15;8.40;92.50
10089;DHT22;51898;49.864;8.550;2023-04-25T00:03:16;8.40;92.40
10089;DHT22;51898;49.864;8.550;2023-04-25T00:06:20;8.40;92.60
10089;DHT22;51898;49.864;8.550;2023-04-25T00:09:22;8.50;92.40
10089;DHT22;51898;49.864;8.550;2023-04-25T00:12:24;8.50;92.30
10089;DHT22;51898;49.864;8.550;2023-04-25T00:15:25;8.50;92.00
10089;DHT22;51898;49.864;8.550;2023-04-25T00:18:27;8.50;92.00
10089;DHT22;51898;49.864;8.550;2023-04-25T00:21:31;8.50;92.00
10089;DHT22;51898;49.864;8.550;2023-04-25T00:24:33;8.40;92.10
10089;DHT22;51898;49.864;8.550;2023-04-25T00:27:35;8.40;92.10
10089;DHT22;51898;49.864;8.550;2023-04-25T00:30:37;8.50;91.90
10089;DHT22;51898;49.864;8.550;2023-04-25T00:33:39;8.50;91.90
10089;DHT22;51898;49.864;8.550;2023-04-25T00:36:40;8.50;91.90
10089;DHT22;51898;49.864;8.550;2023-04-25T00:39:42;8.50;92.00
10089;DHT22;51898;49.864;8.550;2023-04-25T00:42:44;8.50;92.20
10089;DHT22;51898;49.864;8.550;2023-04-25T00:45:47;8.50;92.20
10089;DHT22;51898;49.864;8.550;2023-04-25T00:48:49;8.60;92.10
10089;DHT22;51898;49.864;8.550;2023-04-25T00:51:51;8.50;92.00
10089;DHT22;51898;49.864;8.550;2023-04-25T00:54:52;8.60;92.10
10089;DHT22;51898;49.864;8.550;2023-04-25T00:57:54;8.60;91.80
10089;DHT22;51898;49.864;8.550;2023-04-25T01:00:56;8.60;91.70
10089;DHT22;51898;49.864;8.550;2023-04-25T01:03:59;8.50;91.90
10089;DHT22;51898;49.864;8.550;2023-04-25T01:07:02;8.50;92.00
10089;DHT22;51898;49.864;8.550;2023-04-25T01:10:05;8.50;92.00
10089;DHT22;51898;49.864;8.550;2023-04-25T01:13:07;8.50;91.70
10089;DHT22;51898;49.864;8.550;2023-04-25T01:16:09;8.50;92.00
10089;DHT22;51898;49.864;8.550;2023-04-25T01:19:11;8.50;92.30
10089;DHT22;51898;49.864;8.550;2023-04-25T01:22:13;8.50;91.70
10089;DHT22;51898;49.864;8.550;2023-04-25T01:25:16;8.50;91.70
10089;DHT22;51898;49.864;8.550;2023-04-25T01:28:18;8.50;92.30
10089;DHT22;51898;49.864;8.550;2023-04-25T01:31:20;8.50;92.10
10089;DHT22;51898;49.864;8.550;2023-04-25T01:34:22;8.40;92.20
10089;DHT22;51898;49.864;8.550;2023-04-25T01:37:23;8.40;92.20
10089;DHT22;51898;49.864;8.550;2023-04-25T01:40:27;8.40;92.30
10089;DHT22;51898;49.864;8.550;2023-04-25T01:43:29;8.40;91.90
10089;DHT22;51898;49.864;8.550;2023-04-25T01:46:32;8.30;92.20
10089;DHT22;51898;49.864;8.550;2023-04-25T01:49:34;8.30;92.50
10089;DHT22;51898;49.864;8.550;2023-04-25T01:52:35;8.30;92.80
10089;DHT22;51898;49.864;8.550;2023-04-25T01:55:37;8.40;92.90
10089;DHT22;51898;49.864;8.550;2023-04-25T01:58:39;8.40;92.90
10089;DHT22;51898;49.864;8.550;2023-04-25T02:01:40;8.40;92.90
10089;DHT22;51898;49.864;8.550;2023-04-25T02:04:42;8.40;92.90
10089;DHT22;51898;49.864;8.550;2023-04-25T02:07:44;8.40;93.10
10089;DHT22;51898;49.864;8.550;2023-04-25T02:10:46;8.40;93.00
10089;DHT22;51898;49.864;8.550;2023-04-25T02:13:47;8.40;93.10
10089;DHT22;51898;49.864;8.550;2023-04-25T02:16:49;8.40;93.20
10089;DHT22;51898;49.864;8.550;2023-04-25T02:19:52;8.40;93.20
10089;DHT22;51898;49.864;8.550;2023-04-25T02:22:54;8.40;92.90
10089;DHT22;51898;49.864;8.550;2023-04-25T02:25:56;8.50;93.00
10089;DHT22;51898;49.864;8.550;2023-04-25T02:28:58;8.40;92.80
10089;DHT22;51898;49.864;8.550;2023-04-25T02:32:00;8.40;92.80
10089;DHT22;51898;49.864;8.550;2023-04-25T02:35:02;8.50;92.90
10089;DHT22;51898;49.864;8.550;2023-04-25T02:38:05;8.50;92.70
10089;DHT22;51898;49.864;8.550;2023-04-25T02:41:07;8.50;92.60
10089;DHT22;51898;49.864;8.550;2023-04-25T02:44:08;8.50;92.70
10089;DHT22;51898;49.864;8.550;2023-04-25T02:47:10;8.50;92.50
10089;DHT22;51898;49.864;8.550;2023-04-25T02:50:12;8.50;92.70
10089;DHT22;51898;49.864;8.550;2023-04-25T02:53:13;8.40;92.50
10089;DHT22;51898;49.864;8.550;2023-04-25T02:56:15;8.40;92.50
10089;DHT22;51898;49.864;8.550;2023-04-25T02:59:17;8.30;92.70
10089;DHT22;51898;49.864;8.550;2023-04-25T03:02:18;8.30;93.00
10089;DHT22;51898;49.864;8.550;2023-04-25T03:05:20;8.30;93.30
10089;DHT22;51898;49.864;8.550;2023-04-25T03:08:22;8.30;93.20
10089;DHT22;51898;49.864;8.550;2023-04-25T03:11:25;8.30;93.60
10089;DHT22;51898;49.864;8.550;2023-04-25T03:14:27;8.30;93.60
10089;DHT22;51898;49.864;8.550;2023-04-25T03:17:28;8.30;93.60
10089;DHT22;51898;49.864;8.550;2023-04-25T03:20:30;8.30;93.50
10089;DHT22;51898;49.864;8.550;2023-04-25T03:23:32;8.30;93.40
10089;DHT22;51898;49.864;8.550;2023-04-25T03:26:34;8.30;93.60
10089;DHT22;51898;49.864;8.550;2023-04-25T03:29:35;8.20;93.70
10089;DHT22;51898;49.864;8.550;2023-04-25T03:32:37;8.20;93.70
10089;DHT22;51898;49.864;8.550;2023-04-25T03:35:39;8.20;93.70
10089;DHT22;51898;49.864;8.550;2023-04-25T03:38:40;8.20;93.70
10089;DHT22;51898;49.864;8.550;2023-04-25T03:41:45;8.20;93.80
10089;DHT22;51898;49.864;8.550;2023-04-25T03:44:46;8.20;93.80
10089;DHT22;51898;49.864;8.550;2023-04-25T03:47:48;8.20;93.80
10089;DHT22;51898;49.864;8.550;2023-04-25T03:50:50;8.20;93.90
10089;DHT22;51898;49.864;8.550;2023-04-25T03:53:52;8.20;93.70
10089;DHT22;51898;49.864;8.550;2023-04-25T03:56:54;8.20;93.60
10089;DHT22;51898;49.864;8.550;2023-04-25T03:59:55;8.20;93.60
10089;DHT22;51898;49.864;8.550;2023-04-25T04:02:57;8.10;93.70
10089;DHT22;51898;49.864;8.550;2023-04-25T04:05:59;8.10;93.70
10089;DHT22;51898;49.864;8.550;2023-04-25T04:09:01;8.10;93.80
10089;DHT22;51898;49.864;8.550;2023-04-25T04:12:03;8.10;93.90
10089;DHT22;51898;49.864;8.550;2023-04-25T04:15:05;8.10;93.80
10089;DHT22;51898;49.864;8.550;2023-04-25T04:18:07;8.10;93.80
10089;DHT22;51898;49.864;8.550;2023-04-25T04:21:09;8.10;93.90
10089;DHT22;51898;49.864;8.550;2023-04-25T04:24:11;8.10;94.20
10089;DHT22;51898;49.864;8.550;2023-04-25T04:27:13;8.10;94.30
10089;DHT22;51898;49.864;8.550;2023-04-25T04:30:15;8.10;94.30
10089;DHT22;51898;49.864;8.550;2023-04-25T04:33:17;8.10;94.10
10089;DHT22;51898;49.864;8.550;2023-04-25T04:36:20;8.10;94.40
10089;DHT22;51898;49.864;8.550;2023-04-25T04:39:23;8.20;94.30
10089;DHT22;51898;49.864;8.550;2023-04-25T04:42:24;8.20;94.10
10089;DHT22;51898;49.864;8.550;2023-04-25T04:45:26;8.10;94.30
10089;DHT22;51898;49.864;8.550;2023-04-25T04:48:29;8.20;94.00
10089;DHT22;51898;49.864;8.550;2023-04-25T04:51:34;8.10;93.40
10089;DHT22;51898;49.864;8.550;2023-04-25T04:54:36;8.10;93.50
10089;DHT22;51898;49.864;8.550;2023-04-25T04:57:38;8.10;93.50
10089;DHT22;51898;49.864;8.550;2023-04-25T05:00:40;8.10;92.90
10089;DHT22;51898;49.864;8.550;2023-04-25T05:03:42;8.00;91.30
10089;DHT22;51898;49.864;8.550;2023-04-25T05:06:44;8.00;89.80
10089;DHT22;51898;49.864;8.550;2023-04-25T05:09:49;7.90;88.00
10089;DHT22;51898;49.864;8.550;2023-04-25T05:12:50;7.80;88.20
10089;DHT22;51898;49.864;8.550;2023-04-25T05:15:52;7.70;88.20
10089;DHT22;51898;49.864;8.550;2023-04-25T05:18:54;7.70;86.00
10089;DHT22;51898;49.864;8.550;2023-04-25T05:21:55;7.60;86.30
10089;DHT22;51898;49.864;8.550;2023-04-25T05:24:57;7.70;85.50
10089;DHT22;51898;49.864;8.550;2023-04-25T05:27:59;7.70;85.50
10089;DHT22;51898;49.864;8.550;2023-04-25T05:31:01;7.70;84.80
10089;DHT22;51898;49.864;8.550;2023-04-25T05:34:03;7.50;83.20
10089;DHT22;51898;49.864;8.550;2023-04-25T05:37:04;7.50;83.30
10089;DHT22;51898;49.864;8.550;2023-04-25T05:40:08;7.50;82.00
10089;DHT22;51898;49.864;8.550;2023-04-25T05:43:10;7.50;82.50
10089;DHT22;51898;49.864;8.550;2023-04-25T05:46:11;7.40;81.70
10089;DHT22;51898;49.864;8.550;2023-04-25T05:49:13;7.40;80.30
10089;DHT22;51898;49.864;8.550;2023-04-25T05:52:18;7.50;80.70
10089;DHT22;51898;49.864;8.550;2023-04-25T05:55:19;7.60;81.70
10089;DHT22;51898;49.864;8.550;2023-04-25T05:58:21;7.80;81.20
10089;DHT22;51898;49.864;8.550;2023-04-25T06:01:23;7.80;80.60
10089;DHT22;51898;49.864;8.550;2023-04-25T06:04:25;7.90;79.60
10089;DHT22;51898;49.864;8.550;2023-04-25T06:07:27;7.90;80.30
10089;DHT22;51898;49.864;8.550;2023-04-25T06:10:29;7.90;79.80
10089;DHT22;51898;49.864;8.550;2023-04-25T06:13:30;7.80;80.20
10089;DHT22;51898;49.864;8.550;2023-04-25T06:16:32;7.80;80.30
10089;DHT22;51898;49.864;8.550;2023-04-25T06:19:35;7.80;79.90
10089;DHT22;51898;49.864;8.550;2023-04-25T06:22:37;7.90;80.10
10089;DHT22;51898;49.864;8.550;2023-04-25T06:25:39;7.90;79.50
10089;DHT22;51898;49.864;8.550;2023-04-25T06:28:40;8.00;79.80
10089;DHT22;51898;49.864;8.550;2023-04-25T06:31:42;8.10;79.40
10089;DHT22;51898;49.864;8.550;2023-04-25T06:34:44;8.20;78.70
10089;DHT22;51898;49.864;8.550;2023-04-25T06:37:46;8.40;79.00
10089;DHT22;51898;49.864;8.550;2023-04-25T06:40:47;8.50;77.70
10089;DHT22;51898;49.864;8.550;2023-04-25T06:43:49;8.60;77.30
10089;DHT22;51898;49.864;8.550;2023-04-25T06:46:51;8.70;76.00
10089;DHT22;51898;49.864;8.550;2023-04-25T06:49:52;8.70;76.50
10089;DHT22;51898;49.864;8.550;2023-04-25T06:52:54;8.90;76.80
10089;DHT22;51898;49.864;8.550;2023-04-25T06:55:56;9.20;76.30
10089;DHT22;51898;49.864;8.550;2023-04-25T06:58:57;9.40;74.60
10089;DHT22;51898;49.864;8.550;2023-04-25T07:01:59;9.50;73.20
10089;DHT22;51898;49.864;8.550;2023-04-25T07:05:02;9.60;73.50
10089;DHT22;51898;49.864;8.550;2023-04-25T07:08:05;9.50;69.60
10089;DHT22;51898;49.864;8.550;2023-04-25T07:11:07;9.40;72.30
10089;DHT22;51898;49.864;8.550;2023-04-25T07:14:08;9.20;69.90
10089;DHT22;51898;49.864;8.550;2023-04-25T07:17:10;9.00;71.00
10089;DHT22;51898;49.864;8.550;2023-04-25T07:20:12;8.80;73.00
10089;DHT22;51898;49.864;8.550;2023-04-25T07:23:13;8.90;72.60
10089;DHT22;51898;49.864;8.550;2023-04-25T07:26:15;8.80;72.40
10089;DHT22;51898;49.864;8.550;2023-04-25T07:29:17;8.80;71.90
10089;DHT22;51898;49.864;8.550;2023-04-25T07:32:18;8.70;73.40
10089;DHT22;51898;49.864;8.550;2023-04-25T07:35:20;8.80;72.60
10089;DHT22;51898;49.864;8.550;2023-04-25T07:38:22;8.90;72.40
10089;DHT22;51898;49.864;8.550;2023-04-25T07:41:24;9.00;73.00
10089;DHT22;51898;49.864;8.550;2023-04-25T07:44:25;9.10;73.80
10089;DHT22;51898;49.864;8.550;2023-04-25T07:47:27;9.10;72.10
10089;DHT22;51898;49.864;8.550;2023-04-25T07:50:29;9.30;74.60
10089;DHT22;51898;49.864;8.550;2023-04-25T07:53:30;9.40;71.80
10089;DHT22;51898;49.864;8.550;2023-04-25T07:56:33;9.40;71.60
10089;DHT22;51898;49.864;8.550;2023-04-25T07:59:52;9.40;70.90
10089;DHT22;51898;49.864;8.550;2023-04-25T08:02:54;9.50;71.70
10089;DHT22;51898;49.864;8.550;2023-04-25T08:05:56;9.70;69.30
10089;DHT22;51898;49.864;8.550;2023-04-25T08:08:58;9.70;70.10
10089;DHT22;51898;49.864;8.550;2023-04-25T08:12:00;9.80;68.20
10089;DHT22;51898;49.864;8.550;2023-04-25T08:15:03;10.00;69.80
10089;DHT22;51898;49.864;8.550;2023-04-25T08:18:05;10.30;69.00
10089;DHT22;51898;49.864;8.550;2023-04-25T08:21:07;10.70;68.50
10089;DHT22;51898;49.864;8.550;2023-04-25T08:24:10;10.80;65.80
10089;DHT22;51898;49.864;8.550;2023-04-25T08:27:12;10.80;65.50
10089;DHT22;51898;49.864;8.550;2023-04-25T08:30:14;10.60;65.40
10089;DHT22;51898;49.864;8.550;2023-04-25T08:33:16;10.20;65.90
10089;DHT22;51898;49.864;8.550;2023-04-25T08:36:21;10.30;65.60
10089;DHT22;51898;49.864;8.550;2023-04-25T08:39:39;10.50;66.10
10089;DHT22;51898;49.864;8.550;2023-04-25T08:42:41;10.70;64.70
10089;DHT22;51898;49.864;8.550;2023-04-25T08:45:43;10.80;64.00
10089;DHT22;51898;49.864;8.550;2023-04-25T08:48:46;10.90;64.40
10089;DHT22;51898;49.864;8.550;2023-04-25T08:51:48;11.10;63.00
10089;DHT22;51898;49.864;8.550;2023-04-25T08:54:52;11.40;63.40
10089;DHT22;51898;49.864;8.550;2023-04-25T08:57:57;11.70;61.90
10089;DHT22;51898;49.864;8.550;2023-04-25T09:01:01;11.90;60.80
10089;DHT22;51898;49.864;8.550;2023-04-25T09:04:03;11.90;59.90
10089;DHT22;51898;49.864;8.550;2023-04-25T09:07:06;11.80;62.40
10089;DHT22;51898;49.864;8.550;2023-04-25T09:10:08;12.00;61.70
10089;DHT22;51898;49.864;8.550;2023-04-25T09:13:12;11.80;60.90
10089;DHT22;51898;49.864;8.550;2023-04-25T09:16:14;11.90;62.30
10089;DHT22;51898;49.864;8.550;2023-04-25T09:19:23;11.90;57.30
10089;DHT22;51898;49.864;8.550;2023-04-25T09:22:40;11.90;57.30
10089;DHT22;51898;49.864;8.550;2023-04-25T09:25:41;11.60;57.60
10089;DHT22;51898;49.864;8.550;2023-04-25T09:28:45;11.70;56.40
10089;DHT22;51898;49.864;8.550;2023-04-25T09:31:47;11.70;58.30
10089;DHT22;51898;49.864;8.550;2023-04-25T09:34:54;11.60;58.40
10089;DHT22;51898;49.864;8.550;2023-04-25T09:37:56;11.50;58.40
10089;DHT22;51898;49.864;8.550;2023-04-25T09:40:58;11.50;59.20
10089;DHT22;51898;49.864;8.550;2023-04-25T09:43:59;11.50;59.30
10089;DHT22;51898;49.864;8.550;2023-04-25T09:47:02;11.50;59.80
10089;DHT22;51898;49.864;8.550;2023-04-25T09:50:16;11.30;60.60
10089;DHT22;51898;49.864;8.550;2023-04-25T09:53:18;11.00;61.30
10089;DHT22;51898;49.864;8.550;2023-04-25T09:56:21;10.90;61.80
10089;DHT22;51898;49.864;8.550;2023-04-25T09:59:23;11.00;60.70
10089;DHT22;51898;49.864;8.550;2023-04-25T10:02:26;11.10;60.40
10089;DHT22;51898;49.864;8.550;2023-04-25T10:05:30;11.10;56.50
10089;DHT22;51898;49.864;8.550;2023-04-25T10:08:35;11.10;59.20
10089;DHT22;51898;49.864;8.550;2023-04-25T10:11:38;11.20;58.20
10089;DHT22;51898;49.864;8.550;2023-04-25T10:14:41;11.30;59.00
10089;DHT22;51898;49.864;8.550;2023-04-25T10:17:43;11.30;58.80
10089;DHT22;51898;49.864;8.550;2023-04-25T10:20:46;11.20;59.30
10089;DHT22;51898;49.864;8.550;2023-04-25T10:23:49;11.10;58.90
10089;DHT22;51898;49.864;8.550;2023-04-25T10:26:55;11.30;58.30
10089;DHT22;51898;49.864;8.550;2023-04-25T10:30:05;11.50;55.90
10089;DHT22;51898;49.864;8.550;2023-04-25T10:33:17;11.40;57.00
10089;DHT22;51898;49.864;8.550;2023-04-25T10:36:21;11.50;56.70
10089;DHT22;51898;49.864;8.550;2023-04-25T10:39:25;11.60;57.10
10089;DHT22;51898;49.864;8.550;2023-04-25T10:42:28;11.70;57.10
10089;DHT22;51898;49.864;8.550;2023-04-25T10:45:50;11.50;55.20
10089;DHT22;51898;49.864;8.550;2023-04-25T10:49:00;11.30;57.20
10089;DHT22;51898;49.864;8.550;2023-04-25T10:55:13;11.30;57.60
10089;DHT22;51898;49.864;8.550;2023-04-25T10:58:22;11.50;59.90
10089;DHT22;51898;49.864;8.550;2023-04-25T11:01:24;11.70;59.30
10089;DHT22;51898;49.864;8.550;2023-04-25T11:04:32;11.70;59.30
10089;DHT22;51898;49.864;8.550;2023-04-25T11:10:39;12.00;58.80
10089;DHT22;51898;49.864;8.550;2023-04-25T11:13:41;12.10;56.10
10089;DHT22;51898;49.864;8.550;2023-04-25T11:16:43;12.20;54.20
10089;DHT22;51898;49.864;8.550;2023-04-25T11:19:48;12.60;55.00
10089;DHT22;51898;49.864;8.550;2023-04-25T11:22:50;12.70;53.30
10089;DHT22;51898;49.864;8.550;2023-04-25T11:25:53;12.80;54.10
10089;DHT22;51898;49.864;8.550;2023-04-25T11:28:58;13.00;54.20
10089;DHT22;51898;49.864;8.550;2023-04-25T11:32:01;13.20;54.30
10089;DHT22;51898;49.864;8.550;2023-04-25T11:35:04;13.00;53.00
10089;DHT22;51898;49.864;8.550;2023-04-25T11:38:07;13.10;54.30
10089;DHT22;51898;49.864;8.550;2023-04-25T11:41:09;13.10;54.20
10089;DHT22;51898;49.864;8.550;2023-04-25T11:44:10;12.80;53.70
10089;DHT22;51898;49.864;8.550;2023-04-25T11:47:12;12.70;52.80
10089;DHT22;51898;49.864;8.550;2023-04-25T11:50:14;12.50;54.40
10089;DHT22;51898;49.864;8.550;2023-04-25T11:53:18;12.40;54.60
10089;DHT22;51898;49.864;8.550;2023-04-25T11:56:20;12.60;55.00
10089;DHT22;51898;49.864;8.550;2023-04-25T11:59:25;12.40;55.00
10089;DHT22;51898;49.864;8.550;2023-04-25T12:02:28;12.30;54.70
10089;DHT22;51898;49.864;8.550;2023-04-25T12:05:31;12.30;55.20
10089;DHT22;51898;49.864;8.550;2023-04-25T12:08:35;12.40;55.30
10089;DHT22;51898;49.864;8.550;2023-04-25T12:11:53;12.30;56.40
10089;DHT22;51898;49.864;8.550;2023-04-25T12:14:55;12.40;55.40
10089;DHT22;51898;49.864;8.550;2023-04-25T12:17:57;12.50;55.40
10089;DHT22;51898;49.864;8.550;2023-04-25T12:20:59;12.40;55.20
10089;DHT22;51898;49.864;8.550;2023-04-25T12:27:15;11.80;54.40
10089;DHT22;51898;49.864;8.550;2023-04-25T12:30:17;11.70;54.90
10089;DHT22;51898;49.864;8.550;2023-04-25T12:33:20;11.70;54.60
10089;DHT22;51898;49.864;8.550;2023-04-25T12:36:22;11.90;55.60
10089;DHT22;51898;49.864;8.550;2023-04-25T12:39:24;11.90;55.10
10089;DHT22;51898;49.864;8.550;2023-04-25T12:42:29;11.70;54.40
10089;DHT22;51898;49.864;8.550;2023-04-25T12:45:31;11.70;55.60
10089;DHT22;51898;49.864;8.550;2023-04-25T12:48:32;11.80;53.90
10089;DHT22;51898;49.864;8.550;2023-04-25T12:51:37;11.70;54.10
10089;DHT22;51898;49.864;8.550;2023-04-25T12:54:39;12.20;53.20
10089;DHT22;51898;49.864;8.550;2023-04-25T12:57:40;12.60;54.60
10089;DHT22;51898;49.864;8.550;2023-04-25T13:00:42;12.50;50.30
10089;DHT22;51898;49.864;8.550;2023-04-25T13:03:44;12.50;51.60
10089;DHT22;51898;49.864;8.550;2023-04-25T13:06:47;12.70;51.40
10089;DHT22;51898;49.864;8.550;2023-04-25T13:09:48;12.90;52.80
10089;DHT22;51898;49.864;8.550;2023-04-25T13:12:50;13.00;51.30
10089;DHT22;51898;49.864;8.550;2023-04-25T13:15:52;12.80;51.40
10089;DHT22;51898;49.864;8.550;2023-04-25T13:18:53;12.90;49.80
10089;DHT22;51898;49.864;8.550;2023-04-25T13:21:55;12.40;51.30
10089;DHT22;51898;49.864;8.550;2023-04-25T13:24:57;12.50;50.30
10089;DHT22;51898;49.864;8.550;2023-04-25T13:27:58;12.50;51.10
10089;DHT22;51898;49.864;8.550;2023-04-25T13:31:00;13.00;49.50
10089;DHT22;51898;49.864;8.550;2023-04-25T13:34:02;13.30;48.40
10089;DHT22;51898;49.864;8.550;2023-04-25T13:37:03;13.50;49.50
10089;DHT22;51898;49.864;8.550;2023-04-25T13:40:07;13.50;49.60
10089;DHT22;51898;49.864;8.550;2023-04-25T13:43:11;13.20;48.90
10089;DHT22;51898;49.864;8.550;2023-04-25T13:46:12;12.80;51.60
10089;DHT22;51898;49.864;8.550;2023-04-25T13:49:35;12.70;51.20
10089;DHT22;51898;49.864;8.550;2023-04-25T13:52:36;12.60;49.40
10089;DHT22;51898;49.864;8.550;2023-04-25T13:55:38;12.50;48.60
10089;DHT22;51898;49.864;8.550;2023-04-25T13:58:40;12.50;48.20
10089;DHT22;51898;49.864;8.550;2023-04-25T14:01:42;12.60;49.10
10089;DHT22;51898;49.864;8.550;2023-04-25T14:04:43;12.60;50.70
10089;DHT22;51898;49.864;8.550;2023-04-25T14:07:45;12.60;50.00
10089;DHT22;51898;49.864;8.550;2023-04-25T14:10:47;12.70;49.70
10089;DHT22;51898;49.864;8.550;2023-04-25T14:13:48;12.70;47.80
10089;DHT22;51898;49.864;8.550;2023-04-25T14:16:51;12.50;49.40
10089;DHT22;51898;49.864;8.550;2023-04-25T14:19:55;12.50;50.20
10089;DHT22;51898;49.864;8.550;2023-04-25T14:22:58;12.30;50.70
10089;DHT22;51898;49.864;8.550;2023-04-25T14:25:59;12.40;50.30
10089;DHT22;51898;49.864;8.550;2023-04-25T14:29:01;12.40;50.10
10089;DHT22;51898;49.864;8.550;2023-04-25T14:32:03;12.30;48.70
10089;DHT22;51898;49.864;8.550;2023-04-25T14:35:06;12.20;50.10
10089;DHT22;51898;49.864;8.550;2023-04-25T14:38:08;12.10;50.40
10089;DHT22;51898;49.864;8.550;2023-04-25T14:41:10;12.00;49.90
10089;DHT22;51898;49.864;8.550;2023-04-25T14:44:12;11.90;50.40
10089;DHT22;51898;49.864;8.550;2023-04-25T14:47:13;11.90;49.80
10089;DHT22;51898;49.864;8.550;2023-04-25T14:50:15;11.90;48.90
10089;DHT22;51898;49.864;8.550;2023-04-25T14:53:17;12.00;50.40
10089;DHT22;51898;49.864;8.550;2023-04-25T14:56:19;12.10;50.40
10089;DHT22;51898;49.864;8.550;2023-04-25T14:59:21;12.20;49.50
10089;DHT22;51898;49.864;8.550;2023-04-25T15:02:24;12.20;48.60
10089;DHT22;51898;49.864;8.550;2023-04-25T15:05:25;12.20;49.60
10089;DHT22;51898;49.864;8.550;2023-04-25T15:08:27;12.30;48.90
10089;DHT22;51898;49.864;8.550;2023-04-25T15:11:29;12.20;48.70
10089;DHT22;51898;49.864;8.550;2023-04-25T15:14:31;12.10;48.20
10089;DHT22;51898;49.864;8.550;2023-04-25T15:17:32;12.10;48.90
10089;DHT22;51898;49.864;8.550;2023-04-25T15:20:34;12.10;48.90
10089;DHT22;51898;49.864;8.550;2023-04-25T15:23:36;12.10;48.60
10089;DHT22;51898;49.864;8.550;2023-04-25T15:26:37;12.10;48.10
10089;DHT22;51898;49.864;8.550;2023-04-25T15:29:39;12.20;48.00
10089;DHT22;51898;49.864;8.550;2023-04-25T15:32:45;12.20;48.00
10089;DHT22;51898;49.864;8.550;2023-04-25T15:35:47;12.10;48.40
10089;DHT22;51898;49.864;8.550;2023-04-25T15:38:49;11.90;48.00
10089;DHT22;51898;49.864;8.550;2023-04-25T15:41:51;11.70;48.40
10089;DHT22;51898;49.864;8.550;2023-04-25T15:44:52;11.50;49.80
10089;DHT22;51898;49.864;8.550;2023-04-25T15:47:55;11.40;49.90
10089;DHT22;51898;49.864;8.550;2023-04-25T15:50:58;11.30;50.20
10089;DHT22;51898;49.864;8.550;2023-04-25T15:54:00;11.30;51.20
10089;DHT22;51898;49.864;8.550;2023-04-25T15:57:03;11.40;49.00
10089;DHT22;51898;49.864;8.550;2023-04-25T16:00:06;11.70;49.90
10089;DHT22;51898;49.864;8.550;2023-04-25T16:03:11;11.90;49.80
10089;DHT22;51898;49.864;8.550;2023-04-25T16:06:13;12.00;49.80
10089;DHT22;51898;49.864;8.550;2023-04-25T16:09:16;12.10;48.50
10089;DHT22;51898;49.864;8.550;2023-04-25T16:12:19;12.00;48.00
10089;DHT22;51898;49.864;8.550;2023-04-25T16:15:20;12.00;48.70
10089;DHT22;51898;49.864;8.550;2023-04-25T16:18:22;11.90;49.30
10089;DHT22;51898;49.864;8.550;2023-04-25T16:21:24;12.10;48.30
10089;DHT22;51898;49.864;8.550;2023-04-25T16:24:27;12.20;48.10
10089;DHT22;51898;49.864;8.550;2023-04-25T16:27:29;12.60;48.00
10089;DHT22;51898;49.864;8.550;2023-04-25T16:30:33;13.10;46.50
10089;DHT22;51898;49.864;8.550;2023-04-25T16:33:34;13.40;44.80
10089;DHT22;51898;49.864;8.550;2023-04-25T16:36:36;13.50;45.10
10089;DHT22;51898;49.864;8.550;2023-04-25T16:39:38;13.70;45.50
10089;DHT22;51898;49.864;8.550;2023-04-25T16:42:39;13.90;43.90
10089;DHT22;51898;49.864;8.550;2023-04-25T16:45:41;13.40;44.90
10089;DHT22;51898;49.864;8.550;2023-04-25T16:48:43;13.60;45.90
10089;DHT22;51898;49.864;8.550;2023-04-25T16:51:45;14.30;45.40
10089;DHT22;51898;49.864;8.550;2023-04-25T16:54:47;15.10;42.60
10089;DHT22;51898;49.864;8.550;2023-04-25T16:57:49;14.60;42.80
10089;DHT22;51898;49.864;8.550;2023-04-25T17:00:51;13.80;43.80
10089;DHT22;51898;49.864;8.550;2023-04-25T17:03:52;13.10;45.20
10089;DHT22;51898;49.864;8.550;2023-04-25T17:06:54;12.60;44.70
10089;DHT22;51898;49.864;8.550;2023-04-25T17:09:56;12.10;44.90
10089;DHT22;51898;49.864;8.550;2023-04-25T17:12:58;11.60;45.40
10089;DHT22;51898;49.864;8.550;2023-04-25T17:15:59;11.40;45.90
10089;DHT22;51898;49.864;8.550;2023-04-25T17:19:05;11.20;47.20
10089;DHT22;51898;49.864;8.550;2023-04-25T17:22:08;11.20;47.60
10089;DHT22;51898;49.864;8.550;2023-04-25T17:25:10;11.00;47.20
10089;DHT22;51898;49.864;8.550;2023-04-25T17:28:11;10.90;47.80
10089;DHT22;51898;49.864;8.550;2023-04-25T17:31:16;10.80;49.00
10089;DHT22;51898;49.864;8.550;2023-04-25T17:34:18;10.80;49.50
10089;DHT22;51898;49.864;8.550;2023-04-25T17:37:20;10.80;49.60
10089;DHT22;51898;49.864;8.550;2023-04-25T17:40:23;10.70;50.10
10089;DHT22;51898;49.864;8.550;2023-04-25T17:43:26;10.70;50.60
10089;DHT22;51898;49.864;8.550;2023-04-25T17:46:28;10.70;50.60
10089;DHT22;51898;49.864;8.550;2023-04-25T17:49:32;10.70;50.20
10089;DHT22;51898;49.864;8.550;2023-04-25T17:52:33;10.70;50.40
10089;DHT22;51898;49.864;8.550;2023-04-25T17:55:35;10.60;50.40
10089;DHT22;51898;49.864;8.550;2023-04-25T17:58:37;10.50;49.90
10089;DHT22;51898;49.864;8.550;2023-04-25T18:01:39;10.50;50.70
10089;DHT22;51898;49.864;8.550;2023-04-25T18:04:46;10.40;50.50
10089;DHT22;51898;49.864;8.550;2023-04-25T18:07:47;10.30;50.60
10089;DHT22;51898;49.864;8.550;2023-04-25T18:10:49;10.20;51.10
10089;DHT22;51898;49.864;8.550;2023-04-25T18:13:51;10.10;50.60
10089;DHT22;51898;49.864;8.550;2023-04-25T18:16:53;10.10;51.40
10089;DHT22;51898;49.864;8.550;2023-04-25T18:19:55;10.10;51.20
10089;DHT22;51898;49.864;8.550;2023-04-25T18:22:57;10.00;51.50
10089;DHT22;51898;49.864;8.550;2023-04-25T18:25:59;9.90;51.80
10089;DHT22;51898;49.864;8.550;2023-04-25T18:29:01;9.90;52.40
10089;DHT22;51898;49.864;8.550;2023-04-25T18:32:04;9.80;52.90
10089;DHT22;51898;49.864;8.550;2023-04-25T18:35:06;9.80;53.40
10089;DHT22;51898;49.864;8.550;2023-04-25T18:38:10;9.80;54.00
10089;DHT22;51898;49.864;8.550;2023-04-25T18:41:16;9.70;53.70
10089;DHT22;51898;49.864;8.550;2023-04-25T18:44:21;9.70;54.10
10089;DHT22;51898;49.864;8.550;2023-04-25T18:47:22;9.60;54.70
10089;DHT22;51898;49.864;8.550;2023-04-25T18:50:27;9.50;55.20
10089;DHT22;51898;49.864;8.550;2023-04-25T18:53:28;9.40;55.50
10089;DHT22;51898;49.864;8.550;2023-04-25T18:56:30;9.30;55.90
10089;DHT22;51898;49.864;8.550;2023-04-25T18:59:33;9.20;56.50
10089;DHT22;51898;49.864;8.550;2023-04-25T19:02:34;9.20;57.00
10089;DHT22;51898;49.864;8.550;2023-04-25T19:05:37;9.20;57.70
10089;DHT22;51898;49.864;8.550;2023-04-25T19:08:39;9.10;58.70
10089;DHT22;51898;49.864;8.550;2023-04-25T19:11:41;9.00;58.80
10089;DHT22;51898;49.864;8.550;2023-04-25T19:14:43;8.90;59.00
10089;DHT22;51898;49.864;8.550;2023-04-25T19:17:44;8.80;59.60
10089;DHT22;51898;49.864;8.550;2023-04-25T19:20:47;8.70;60.00
10089;DHT22;51898;49.864;8.550;2023-04-25T19:23:49;8.60;60.50
10089;DHT22;51898;49.864;8.550;2023-04-25T19:26:51;8.60;60.50
10089;DHT22;51898;49.864;8.550;2023-04-25T19:29:52;8.40;61.10